sensor_id;sensor_type;location;lat;lon;timestamp;pressure;altitude;pressure_sealevel;temperature
31528;BMP280;10206;48.012;10.030;2023-06-24T00:00:10;95709.16;;;18.72
31528;BMP280;10206;48.012;10.030;2023-06-24T00:02:38;95706.56;;;18.41
31528;BMP280;10206;48.012;10.030;2023-06-24T00:05:05;95706.97;;;18.35
31528;BMP280;10206;48.012;10.030;2023-06-24T00:07:32;95700.94;;;18.39
31528;BMP280;10206;48.012;10.030;2023-06-24T00:10:01;95706.72;;;18.43
31528;BMP280;10206;48.012;10.030;2023-06-24T00:12:29;95700.22;;;18.27
31528;BMP280;10206;48.012;10.030;2023-06-24T00:14:55;95707.88;;;18.28
31528;BMP280;10206;48.012;10.030;2023-06-24T00:17:21;95701.44;;;18.35
31528;BMP280;10206;48.012;10.030;2023-06-24T00:19:47;95700.13;;;18.60
31528;BMP280;10206;48.012;10.030;2023-06-24T00:22:13;95701.94;;;18.67
31528;BMP280;10206;48.012;10.030;2023-06-24T00:24:39;95702.66;;;18.79
31528;BMP280;10206;48.012;10.030;2023-06-24T00:27:07;95699.03;;;18.65
31528;BMP280;10206;48.012;10.030;2023-06-24T00:29:33;95701.19;;;18.78
31528;BMP280;10206;48.012;10.030;2023-06-24T00:32:00;95699.75;;;18.65
31528;BMP280;10206;48.012;10.030;2023-06-24T00:34:26;95698.94;;;18.63
31528;BMP280;10206;48.012;10.030;2023-06-24T00:36:52;95690.06;;;18.76
31528;BMP280;10206;48.012;10.030;2023-06-24T00:39:18;95689.81;;;18.72
31528;BMP280;10206;48.012;10.030;2023-06-24T00:41:45;95679.56;;;18.74
31528;BMP280;10206;48.012;10.030;2023-06-24T00:44:11;95677.66;;;18.77
31528;BMP280;10206;48.012;10.030;2023-06-24T00:46:37;95685.34;;;18.90
31528;BMP280;10206;48.012;10.030;2023-06-24T00:49:06;95682.91;;;19.07
31528;BMP280;10206;48.012;10.030;2023-06-24T00:51:32;95686.41;;;18.73
31528;BMP280;10206;48.012;10.030;2023-06-24T00:54:00;95687.03;;;18.72
31528;BMP280;10206;48.012;10.030;2023-06-24T00:56:34;95679.19;;;18.91
31528;BMP280;10206;48.012;10.030;2023-06-24T00:59:01;95679.47;;;18.72
31528;BMP280;10206;48.012;10.030;2023-06-24T01:01:33;95677.53;;;18.75
31528;BMP280;10206;48.012;10.030;2023-06-24T01:04:02;95673.56;;;18.78
31528;BMP280;10206;48.012;10.030;2023-06-24T01:06:29;95670.91;;;18.80
31528;BMP280;10206;48.012;10.030;2023-06-24T01:08:57;95668.75;;;18.90
31528;BMP280;10206;48.012;10.030;2023-06-24T01:11:24;95672.94;;;19.02
31528;BMP280;10206;48.012;10.030;2023-06-24T01:13:50;95671.84;;;18.96
31528;BMP280;10206;48.012;10.030;2023-06-24T01:33:52;95669.66;;;19.06
31528;BMP280;10206;48.012;10.030;2023-06-24T01:36:21;95661.28;;;18.92
31528;BMP280;10206;48.012;10.030;2023-06-24T01:39:03;95665.97;;;19.01
31528;BMP280;10206;48.012;10.030;2023-06-24T01:41:40;95665.84;;;18.88
31528;BMP280;10206;48.012;10.030;2023-06-24T01:44:09;95672.13;;;18.88
31528;BMP280;10206;48.012;10.030;2023-06-24T01:46:36;95668.75;;;18.55
31528;BMP280;10206;48.012;10.030;2023-06-24T01:49:05;95669.47;;;19.02
31528;BMP280;10206;48.012;10.030;2023-06-24T01:51:35;95667.53;;;18.93
31528;BMP280;10206;48.012;10.030;2023-06-24T01:54:04;95667.53;;;18.93
31528;BMP280;10206;48.012;10.030;2023-06-24T01:56:33;95662.22;;;19.08
31528;BMP280;10206;48.012;10.030;2023-06-24T01:59:02;95657.56;;;18.99
31528;BMP280;10206;48.012;10.030;2023-06-24T02:01:31;95662.41;;;18.76
31528;BMP280;10206;48.012;10.030;2023-06-24T02:04:00;95659.81;;;19.03
31528;BMP280;10206;48.012;10.030;2023-06-24T02:06:28;95663.22;;;18.90
31528;BMP280;10206;48.012;10.030;2023-06-24T02:08:57;95656.63;;;18.95
31528;BMP280;10206;48.012;10.030;2023-06-24T02:11:25;95660.25;;;19.22
31528;BMP280;10206;48.012;10.030;2023-06-24T02:13:53;95662.94;;;19.09
31528;BMP280;10206;48.012;10.030;2023-06-24T02:16:21;95654.06;;;18.87
31528;BMP280;10206;48.012;10.030;2023-06-24T02:18:48;95654.78;;;18.88
31528;BMP280;10206;48.012;10.030;2023-06-24T02:21:16;95653.34;;;18.98
31528;BMP280;10206;48.012;10.030;2023-06-24T02:23:44;95654.41;;;19.05
31528;BMP280;10206;48.012;10.030;2023-06-24T02:26:10;95652.81;;;19.13
31528;BMP280;10206;48.012;10.030;2023-06-24T02:28:37;95642.22;;;19.21
31528;BMP280;10206;48.012;10.030;2023-06-24T02:31:06;95651.25;;;19.22
31528;BMP280;10206;48.012;10.030;2023-06-24T02:33:34;95658.63;;;19.17
31528;BMP280;10206;48.012;10.030;2023-06-24T02:36:01;95648.94;;;19.30
31528;BMP280;10206;48.012;10.030;2023-06-24T02:38:27;95656.91;;;19.24
31528;BMP280;10206;48.012;10.030;2023-06-24T02:40:53;95651.47;;;19.26
31528;BMP280;10206;48.012;10.030;2023-06-24T02:43:19;95657.81;;;19.28
31528;BMP280;10206;48.012;10.030;2023-06-24T02:45:47;95666.34;;;19.44
31528;BMP280;10206;48.012;10.030;2023-06-24T02:48:14;95669.09;;;19.44
31528;BMP280;10206;48.012;10.030;2023-06-24T02:50:42;95666.72;;;19.38
31528;BMP280;10206;48.012;10.030;2023-06-24T02:53:11;95674.63;;;19.44
31528;BMP280;10206;48.012;10.030;2023-06-24T02:55:40;95674.88;;;19.48
31528;BMP280;10206;48.012;10.030;2023-06-24T02:58:06;95680.06;;;19.67
31528;BMP280;10206;48.012;10.030;2023-06-24T03:00:34;95685.34;;;19.75
31528;BMP280;10206;48.012;10.030;2023-06-24T03:03:02;95686.56;;;19.72
31528;BMP280;10206;48.012;10.030;2023-06-24T03:05:30;95683.91;;;19.74
31528;BMP280;10206;48.012;10.030;2023-06-24T03:07:57;95695.25;;;19.66
31528;BMP280;10206;48.012;10.030;2023-06-24T03:10:24;95692.94;;;19.74
31528;BMP280;10206;48.012;10.030;2023-06-24T03:12:51;95696.69;;;19.67
31528;BMP280;10206;48.012;10.030;2023-06-24T03:15:18;95703.44;;;19.64
31528;BMP280;10206;48.012;10.030;2023-06-24T03:17:44;95703.00;;;19.56
31528;BMP280;10206;48.012;10.030;2023-06-24T03:20:10;95700.09;;;19.66
31528;BMP280;10206;48.012;10.030;2023-06-24T03:22:36;95707.16;;;19.69
31528;BMP280;10206;48.012;10.030;2023-06-24T03:25:03;95707.19;;;19.57
31528;BMP280;10206;48.012;10.030;2023-06-24T03:27:29;95706.31;;;19.66
31528;BMP280;10206;48.012;10.030;2023-06-24T03:29:57;95705.13;;;19.69
31528;BMP280;10206;48.012;10.030;2023-06-24T03:32:23;95710.00;;;19.46
31528;BMP280;10206;48.012;10.030;2023-06-24T03:34:49;95704.22;;;19.42
31528;BMP280;10206;48.012;10.030;2023-06-24T03:37:15;95705.47;;;19.38
31528;BMP280;10206;48.012;10.030;2023-06-24T03:39:42;95707.63;;;19.28
31528;BMP280;10206;48.012;10.030;2023-06-24T03:42:08;95710.63;;;19.32
31528;BMP280;10206;48.012;10.030;2023-06-24T03:44:34;95713.78;;;19.27
31528;BMP280;10206;48.012;10.030;2023-06-24T03:47:00;95708.25;;;19.64
31528;BMP280;10206;48.012;10.030;2023-06-24T03:49:26;95707.00;;;19.42
31528;BMP280;10206;48.012;10.030;2023-06-24T03:51:52;95715.31;;;19.42
31528;BMP280;10206;48.012;10.030;2023-06-24T03:54:18;95715.16;;;19.51
31528;BMP280;10206;48.012;10.030;2023-06-24T03:56:44;95719.66;;;19.33
31528;BMP280;10206;48.012;10.030;2023-06-24T03:59:10;95717.81;;;19.49
31528;BMP280;10206;48.012;10.030;2023-06-24T04:01:36;95714.81;;;19.45
31528;BMP280;10206;48.012;10.030;2023-06-24T04:04:03;95709.59;;;19.26
31528;BMP280;10206;48.012;10.030;2023-06-24T04:06:30;95709.81;;;19.30
31528;BMP280;10206;48.012;10.030;2023-06-24T04:08:56;95713.94;;;19.06
31528;BMP280;10206;48.012;10.030;2023-06-24T04:11:22;95710.81;;;19.00
31528;BMP280;10206;48.012;10.030;2023-06-24T04:13:48;95707.97;;;19.46
31528;BMP280;10206;48.012;10.030;2023-06-24T04:16:15;95719.94;;;19.14
31528;BMP280;10206;48.012;10.030;2023-06-24T04:18:41;95719.28;;;19.50
31528;BMP280;10206;48.012;10.030;2023-06-24T04:21:07;95715.28;;;19.53
31528;BMP280;10206;48.012;10.030;2023-06-24T04:23:34;95708.94;;;19.76
31528;BMP280;10206;48.012;10.030;2023-06-24T04:26:00;95717.38;;;20.96
31528;BMP280;10206;48.012;10.030;2023-06-24T04:28:26;95725.84;;;21.54
31528;BMP280;10206;48.012;10.030;2023-06-24T04:30:55;95726.00;;;22.01
31528;BMP280;10206;48.012;10.030;2023-06-24T04:33:22;95721.66;;;22.42
31528;BMP280;10206;48.012;10.030;2023-06-24T04:35:49;95732.13;;;22.59
31528;BMP280;10206;48.012;10.030;2023-06-24T04:38:17;95738.94;;;22.72
31528;BMP280;10206;48.012;10.030;2023-06-24T04:40:44;95732.78;;;23.57
31528;BMP280;10206;48.012;10.030;2023-06-24T04:43:11;95726.81;;;23.65
31528;BMP280;10206;48.012;10.030;2023-06-24T04:45:37;95732.94;;;22.31
31528;BMP280;10206;48.012;10.030;2023-06-24T04:48:03;95743.97;;;22.76
31528;BMP280;10206;48.012;10.030;2023-06-24T04:50:29;95730.06;;;23.09
31528;BMP280;10206;48.012;10.030;2023-06-24T04:52:55;95729.25;;;22.73
31528;BMP280;10206;48.012;10.030;2023-06-24T04:55:24;95733.19;;;22.52
31528;BMP280;10206;48.012;10.030;2023-06-24T04:57:50;95729.06;;;22.22
31528;BMP280;10206;48.012;10.030;2023-06-24T05:00:16;95720.06;;;21.93
31528;BMP280;10206;48.012;10.030;2023-06-24T05:02:43;95724.03;;;22.03
31528;BMP280;10206;48.012;10.030;2023-06-24T05:05:09;95719.75;;;21.87
31528;BMP280;10206;48.012;10.030;2023-06-24T05:07:35;95725.84;;;22.28
31528;BMP280;10206;48.012;10.030;2023-06-24T05:10:01;95723.88;;;22.46
31528;BMP280;10206;48.012;10.030;2023-06-24T05:12:27;95729.53;;;22.32
31528;BMP280;10206;48.012;10.030;2023-06-24T05:14:53;95735.28;;;22.52
31528;BMP280;10206;48.012;10.030;2023-06-24T05:17:20;95740.75;;;22.34
31528;BMP280;10206;48.012;10.030;2023-06-24T05:19:46;95735.72;;;21.86
31528;BMP280;10206;48.012;10.030;2023-06-24T05:22:12;95743.56;;;21.47
31528;BMP280;10206;48.012;10.030;2023-06-24T05:24:38;95744.63;;;21.98
31528;BMP280;10206;48.012;10.030;2023-06-24T05:27:07;95746.88;;;22.17
31528;BMP280;10206;48.012;10.030;2023-06-24T05:29:34;95747.66;;;22.65
31528;BMP280;10206;48.012;10.030;2023-06-24T05:32:00;95746.84;;;22.46
31528;BMP280;10206;48.012;10.030;2023-06-24T05:34:27;95741.03;;;23.05
31528;BMP280;10206;48.012;10.030;2023-06-24T05:36:53;95743.31;;;23.26
31528;BMP280;10206;48.012;10.030;2023-06-24T05:39:20;95745.28;;;23.23
31528;BMP280;10206;48.012;10.030;2023-06-24T05:41:46;95735.78;;;23.28
31528;BMP280;10206;48.012;10.030;2023-06-24T05:44:15;95738.38;;;23.07
31528;BMP280;10206;48.012;10.030;2023-06-24T05:46:41;95746.19;;;23.28
31528;BMP280;10206;48.012;10.030;2023-06-24T05:49:07;95739.75;;;23.08
31528;BMP280;10206;48.012;10.030;2023-06-24T05:51:33;95743.97;;;22.44
31528;BMP280;10206;48.012;10.030;2023-06-24T05:53:59;95749.88;;;22.37
31528;BMP280;10206;48.012;10.030;2023-06-24T05:56:25;95759.31;;;22.77
31528;BMP280;10206;48.012;10.030;2023-06-24T05:58:52;95759.59;;;22.67
31528;BMP280;10206;48.012;10.030;2023-06-24T06:01:18;95749.16;;;23.32
31528;BMP280;10206;48.012;10.030;2023-06-24T06:03:44;95756.81;;;23.49
31528;BMP280;10206;48.012;10.030;2023-06-24T06:06:10;95753.56;;;23.72
31528;BMP280;10206;48.012;10.030;2023-06-24T06:08:36;95749.25;;;24.04
31528;BMP280;10206;48.012;10.030;2023-06-24T06:11:02;95749.00;;;24.16
31528;BMP280;10206;48.012;10.030;2023-06-24T06:13:29;95754.63;;;24.94
31528;BMP280;10206;48.012;10.030;2023-06-24T06:15:56;95753.38;;;25.19
31528;BMP280;10206;48.012;10.030;2023-06-24T06:18:22;95743.44;;;25.13
31528;BMP280;10206;48.012;10.030;2023-06-24T06:20:48;95747.81;;;24.99
31528;BMP280;10206;48.012;10.030;2023-06-24T06:23:15;95757.00;;;25.23
31528;BMP280;10206;48.012;10.030;2023-06-24T06:25:42;95751.81;;;25.35
31528;BMP280;10206;48.012;10.030;2023-06-24T06:28:08;95748.53;;;25.41
31528;BMP280;10206;48.012;10.030;2023-06-24T06:30:34;95745.59;;;24.95
31528;BMP280;10206;48.012;10.030;2023-06-24T06:33:00;95745.47;;;25.11
31528;BMP280;10206;48.012;10.030;2023-06-24T06:35:26;95746.03;;;24.88
31528;BMP280;10206;48.012;10.030;2023-06-24T06:37:52;95740.75;;;24.96
31528;BMP280;10206;48.012;10.030;2023-06-24T06:40:20;95747.66;;;25.36
31528;BMP280;10206;48.012;10.030;2023-06-24T06:42:47;95748.59;;;25.21
31528;BMP280;10206;48.012;10.030;2023-06-24T06:45:13;95754.69;;;25.16
31528;BMP280;10206;48.012;10.030;2023-06-24T06:47:39;95754.44;;;25.72
31528;BMP280;10206;48.012;10.030;2023-06-24T06:50:06;95747.19;;;25.87
31528;BMP280;10206;48.012;10.030;2023-06-24T06:52:33;95750.72;;;25.66
31528;BMP280;10206;48.012;10.030;2023-06-24T06:55:00;95745.88;;;25.90
31528;BMP280;10206;48.012;10.030;2023-06-24T06:57:26;95743.13;;;25.47
31528;BMP280;10206;48.012;10.030;2023-06-24T06:59:52;95745.00;;;26.30
31528;BMP280;10206;48.012;10.030;2023-06-24T07:02:19;95749.88;;;26.06
31528;BMP280;10206;48.012;10.030;2023-06-24T07:04:45;95751.47;;;26.37
31528;BMP280;10206;48.012;10.030;2023-06-24T07:07:13;95746.84;;;26.22
31528;BMP280;10206;48.012;10.030;2023-06-24T07:09:40;95745.28;;;25.93
31528;BMP280;10206;48.012;10.030;2023-06-24T07:12:09;95747.31;;;26.14
31528;BMP280;10206;48.012;10.030;2023-06-24T07:14:35;95736.69;;;26.09
31528;BMP280;10206;48.012;10.030;2023-06-24T07:17:01;95743.09;;;26.13
31528;BMP280;10206;48.012;10.030;2023-06-24T07:19:28;95743.28;;;25.96
31528;BMP280;10206;48.012;10.030;2023-06-24T07:21:54;95740.72;;;26.53
31528;BMP280;10206;48.012;10.030;2023-06-24T07:24:20;95735.50;;;26.93
31528;BMP280;10206;48.012;10.030;2023-06-24T07:26:46;95746.41;;;26.55
31528;BMP280;10206;48.012;10.030;2023-06-24T07:29:12;95742.34;;;26.60
31528;BMP280;10206;48.012;10.030;2023-06-24T07:31:38;95734.44;;;27.06
31528;BMP280;10206;48.012;10.030;2023-06-24T07:34:04;95740.28;;;27.16
31528;BMP280;10206;48.012;10.030;2023-06-24T07:36:31;95737.97;;;27.06
31528;BMP280;10206;48.012;10.030;2023-06-24T07:38:57;95738.97;;;26.91
31528;BMP280;10206;48.012;10.030;2023-06-24T07:41:23;95737.41;;;25.64
31528;BMP280;10206;48.012;10.030;2023-06-24T07:43:49;95747.94;;;26.60
31528;BMP280;10206;48.012;10.030;2023-06-24T07:46:15;95748.47;;;26.80
31528;BMP280;10206;48.012;10.030;2023-06-24T07:48:42;95745.00;;;26.30
31528;BMP280;10206;48.012;10.030;2023-06-24T07:51:08;95743.47;;;27.32
31528;BMP280;10206;48.012;10.030;2023-06-24T07:53:35;95734.34;;;27.31
31528;BMP280;10206;48.012;10.030;2023-06-24T07:56:01;95738.53;;;27.89
31528;BMP280;10206;48.012;10.030;2023-06-24T07:58:27;95742.59;;;27.23
31528;BMP280;10206;48.012;10.030;2023-06-24T08:00:53;95747.66;;;26.50
31528;BMP280;10206;48.012;10.030;2023-06-24T08:03:33;95737.31;;;27.08
31528;BMP280;10206;48.012;10.030;2023-06-24T08:05:59;95742.22;;;26.56
31528;BMP280;10206;48.012;10.030;2023-06-24T08:08:26;95734.25;;;27.55
31528;BMP280;10206;48.012;10.030;2023-06-24T08:10:52;95738.53;;;26.49
31528;BMP280;10206;48.012;10.030;2023-06-24T08:13:18;95742.81;;;26.52
31528;BMP280;10206;48.012;10.030;2023-06-24T08:15:44;95743.00;;;26.35
31528;BMP280;10206;48.012;10.030;2023-06-24T08:18:10;95748.50;;;26.31
31528;BMP280;10206;48.012;10.030;2023-06-24T08:20:37;95747.97;;;26.36
31528;BMP280;10206;48.012;10.030;2023-06-24T08:23:03;95751.41;;;26.84
31528;BMP280;10206;48.012;10.030;2023-06-24T08:25:29;95752.31;;;27.79
31528;BMP280;10206;48.012;10.030;2023-06-24T08:27:56;95736.69;;;27.11
31528;BMP280;10206;48.012;10.030;2023-06-24T08:30:22;95737.66;;;27.22
31528;BMP280;10206;48.012;10.030;2023-06-24T08:32:48;95737.28;;;26.80
31528;BMP280;10206;48.012;10.030;2023-06-24T08:35:14;95735.31;;;27.12
31528;BMP280;10206;48.012;10.030;2023-06-24T08:37:41;95734.19;;;27.23
31528;BMP280;10206;48.012;10.030;2023-06-24T08:40:07;95733.25;;;28.05
31528;BMP280;10206;48.012;10.030;2023-06-24T08:42:34;95724.53;;;27.60
31528;BMP280;10206;48.012;10.030;2023-06-24T08:45:00;95728.16;;;27.64
31528;BMP280;10206;48.012;10.030;2023-06-24T08:47:28;95735.22;;;27.08
31528;BMP280;10206;48.012;10.030;2023-06-24T08:50:01;95736.50;;;27.31
31528;BMP280;10206;48.012;10.030;2023-06-24T08:52:32;95736.22;;;27.80
31528;BMP280;10206;48.012;10.030;2023-06-24T08:55:01;95738.16;;;27.73
31528;BMP280;10206;48.012;10.030;2023-06-24T08:57:28;95726.88;;;27.69
31528;BMP280;10206;48.012;10.030;2023-06-24T08:59:55;95732.50;;;27.40
31528;BMP280;10206;48.012;10.030;2023-06-24T09:02:21;95728.97;;;27.39
31528;BMP280;10206;48.012;10.030;2023-06-24T09:04:47;95727.03;;;27.77
31528;BMP280;10206;48.012;10.030;2023-06-24T09:07:13;95732.50;;;27.71
31528;BMP280;10206;48.012;10.030;2023-06-24T09:09:44;95732.31;;;27.63
31528;BMP280;10206;48.012;10.030;2023-06-24T09:12:14;95724.72;;;27.99
31528;BMP280;10206;48.012;10.030;2023-06-24T09:14:41;95723.50;;;27.45
31528;BMP280;10206;48.012;10.030;2023-06-24T09:17:07;95721.97;;;28.37
31528;BMP280;10206;48.012;10.030;2023-06-24T09:19:35;95708.31;;;28.55
31528;BMP280;10206;48.012;10.030;2023-06-24T09:22:06;95711.31;;;28.30
31528;BMP280;10206;48.012;10.030;2023-06-24T09:24:36;95707.53;;;28.90
31528;BMP280;10206;48.012;10.030;2023-06-24T09:27:03;95697.16;;;28.24
31528;BMP280;10206;48.012;10.030;2023-06-24T09:29:33;95709.25;;;29.11
31528;BMP280;10206;48.012;10.030;2023-06-24T09:31:59;95704.06;;;27.85
31528;BMP280;10206;48.012;10.030;2023-06-24T09:34:27;95696.75;;;28.39
31528;BMP280;10206;48.012;10.030;2023-06-24T09:36:55;95696.53;;;28.65
31528;BMP280;10206;48.012;10.030;2023-06-24T09:39:23;95697.63;;;27.19
31528;BMP280;10206;48.012;10.030;2023-06-24T09:42:00;95697.13;;;27.27
31528;BMP280;10206;48.012;10.030;2023-06-24T09:44:30;95678.72;;;28.14
31528;BMP280;10206;48.012;10.030;2023-06-24T09:46:56;95687.38;;;28.27
31528;BMP280;10206;48.012;10.030;2023-06-24T09:49:23;95688.91;;;28.32
31528;BMP280;10206;48.012;10.030;2023-06-24T09:51:57;95698.13;;;28.76
31528;BMP280;10206;48.012;10.030;2023-06-24T09:54:26;95689.25;;;29.35
31528;BMP280;10206;48.012;10.030;2023-06-24T09:56:54;95693.16;;;29.61
31528;BMP280;10206;48.012;10.030;2023-06-24T09:59:24;95695.69;;;29.43
31528;BMP280;10206;48.012;10.030;2023-06-24T10:01:53;95692.44;;;28.72
31528;BMP280;10206;48.012;10.030;2023-06-24T10:04:20;95682.22;;;29.34
31528;BMP280;10206;48.012;10.030;2023-06-24T10:06:49;95690.19;;;29.04
31528;BMP280;10206;48.012;10.030;2023-06-24T10:09:16;95682.03;;;29.22
31528;BMP280;10206;48.012;10.030;2023-06-24T10:11:46;95667.88;;;29.65
31528;BMP280;10206;48.012;10.030;2023-06-24T10:14:16;95668.50;;;28.69
31528;BMP280;10206;48.012;10.030;2023-06-24T10:16:44;95671.78;;;28.55
31528;BMP280;10206;48.012;10.030;2023-06-24T10:19:10;95674.84;;;28.69
31528;BMP280;10206;48.012;10.030;2023-06-24T10:21:53;95672.88;;;29.21
31528;BMP280;10206;48.012;10.030;2023-06-24T10:24:33;95669.44;;;28.81
31528;BMP280;10206;48.012;10.030;2023-06-24T10:27:08;95664.34;;;28.72
31528;BMP280;10206;48.012;10.030;2023-06-24T10:29:38;95661.72;;;28.42
31528;BMP280;10206;48.012;10.030;2023-06-24T10:32:08;95657.28;;;27.62
31528;BMP280;10206;48.012;10.030;2023-06-24T10:37:18;95646.00;;;27.60
31528;BMP280;10206;48.012;10.030;2023-06-24T10:39:48;95645.38;;;27.63
31528;BMP280;10206;48.012;10.030;2023-06-24T10:42:39;95644.31;;;27.15
31528;BMP280;10206;48.012;10.030;2023-06-24T10:45:16;95645.31;;;27.59
31528;BMP280;10206;48.012;10.030;2023-06-24T10:47:50;95645.84;;;28.21
31528;BMP280;10206;48.012;10.030;2023-06-24T10:50:22;95647.09;;;28.12
31528;BMP280;10206;48.012;10.030;2023-06-24T10:52:51;95637.91;;;28.08
31528;BMP280;10206;48.012;10.030;2023-06-24T10:55:23;95642.88;;;27.14
31528;BMP280;10206;48.012;10.030;2023-06-24T10:57:50;95632.09;;;27.97
31528;BMP280;10206;48.012;10.030;2023-06-24T11:00:17;95639.59;;;28.23
31528;BMP280;10206;48.012;10.030;2023-06-24T11:02:44;95639.19;;;28.80
31528;BMP280;10206;48.012;10.030;2023-06-24T11:05:13;95633.88;;;29.45
31528;BMP280;10206;48.012;10.030;2023-06-24T11:07:39;95637.47;;;29.52
31528;BMP280;10206;48.012;10.030;2023-06-24T11:10:15;95626.63;;;29.30
31528;BMP280;10206;48.012;10.030;2023-06-24T11:12:42;95616.16;;;29.92
31528;BMP280;10206;48.012;10.030;2023-06-24T11:15:10;95626.56;;;30.44
31528;BMP280;10206;48.012;10.030;2023-06-24T11:17:37;95627.69;;;30.94
31528;BMP280;10206;48.012;10.030;2023-06-24T11:20:08;95613.56;;;30.13
31528;BMP280;10206;48.012;10.030;2023-06-24T11:22:35;95604.50;;;29.09
31528;BMP280;10206;48.012;10.030;2023-06-24T11:25:01;95604.47;;;30.18
31528;BMP280;10206;48.012;10.030;2023-06-24T11:27:29;95610.25;;;29.68
31528;BMP280;10206;48.012;10.030;2023-06-24T11:29:58;95590.97;;;28.95
31528;BMP280;10206;48.012;10.030;2023-06-24T11:32:41;95604.13;;;29.84
31528;BMP280;10206;48.012;10.030;2023-06-24T11:35:12;95603.75;;;30.16
31528;BMP280;10206;48.012;10.030;2023-06-24T11:37:42;95592.69;;;30.36
31528;BMP280;10206;48.012;10.030;2023-06-24T11:40:10;95586.53;;;30.57
31528;BMP280;10206;48.012;10.030;2023-06-24T11:42:37;95593.38;;;29.68
31528;BMP280;10206;48.012;10.030;2023-06-24T11:45:09;95575.84;;;30.42
31528;BMP280;10206;48.012;10.030;2023-06-24T11:47:38;95576.16;;;30.00
31528;BMP280;10206;48.012;10.030;2023-06-24T11:50:06;95588.75;;;29.93
31528;BMP280;10206;48.012;10.030;2023-06-24T11:52:43;95574.34;;;30.37
31528;BMP280;10206;48.012;10.030;2023-06-24T11:55:24;95553.28;;;29.68
31528;BMP280;10206;48.012;10.030;2023-06-24T11:58:00;95574.75;;;30.03
31528;BMP280;10206;48.012;10.030;2023-06-24T12:03:04;95562.72;;;30.76
31528;BMP280;10206;48.012;10.030;2023-06-24T12:05:32;95573.75;;;30.46
31528;BMP280;10206;48.012;10.030;2023-06-24T12:08:09;95565.22;;;31.52
31528;BMP280;10206;48.012;10.030;2023-06-24T12:10:36;95569.44;;;30.35
31528;BMP280;10206;48.012;10.030;2023-06-24T12:13:04;95551.94;;;29.75
31528;BMP280;10206;48.012;10.030;2023-06-24T12:15:32;95561.53;;;30.18
31528;BMP280;10206;48.012;10.030;2023-06-24T12:17:59;95550.78;;;30.80
31528;BMP280;10206;48.012;10.030;2023-06-24T12:20:25;95543.03;;;30.80
31528;BMP280;10206;48.012;10.030;2023-06-24T12:22:52;95541.97;;;31.57
31528;BMP280;10206;48.012;10.030;2023-06-24T12:25:18;95545.28;;;31.10
31528;BMP280;10206;48.012;10.030;2023-06-24T12:27:45;95541.84;;;31.21
31528;BMP280;10206;48.012;10.030;2023-06-24T12:30:12;95547.53;;;31.35
31528;BMP280;10206;48.012;10.030;2023-06-24T12:32:39;95549.78;;;31.69
31528;BMP280;10206;48.012;10.030;2023-06-24T12:35:06;95542.03;;;31.99
31528;BMP280;10206;48.012;10.030;2023-06-24T12:37:34;95540.66;;;31.82
31528;BMP280;10206;48.012;10.030;2023-06-24T12:40:02;95530.69;;;31.65
31528;BMP280;10206;48.012;10.030;2023-06-24T12:42:28;95533.41;;;31.33
31528;BMP280;10206;48.012;10.030;2023-06-24T12:44:54;95524.44;;;30.41
31528;BMP280;10206;48.012;10.030;2023-06-24T12:47:21;95526.06;;;30.78
31528;BMP280;10206;48.012;10.030;2023-06-24T12:49:48;95525.53;;;31.06
31528;BMP280;10206;48.012;10.030;2023-06-24T12:52:15;95525.75;;;31.56
31528;BMP280;10206;48.012;10.030;2023-06-24T12:54:41;95526.06;;;30.72
31528;BMP280;10206;48.012;10.030;2023-06-24T12:57:07;95521.13;;;30.73
31528;BMP280;10206;48.012;10.030;2023-06-24T12:59:33;95519.47;;;30.40
31528;BMP280;10206;48.012;10.030;2023-06-24T13:01:59;95523.53;;;30.19
31528;BMP280;10206;48.012;10.030;2023-06-24T13:04:26;95532.34;;;29.83
31528;BMP280;10206;48.012;10.030;2023-06-24T13:06:53;95523.41;;;30.03
31528;BMP280;10206;48.012;10.030;2023-06-24T13:09:19;95524.72;;;29.96
31528;BMP280;10206;48.012;10.030;2023-06-24T13:11:46;95518.44;;;30.95
31528;BMP280;10206;48.012;10.030;2023-06-24T13:14:12;95513.50;;;30.91
31528;BMP280;10206;48.012;10.030;2023-06-24T13:16:39;95511.78;;;30.46
31528;BMP280;10206;48.012;10.030;2023-06-24T13:19:05;95516.22;;;30.81
31528;BMP280;10206;48.012;10.030;2023-06-24T13:21:31;95512.44;;;30.39
31528;BMP280;10206;48.012;10.030;2023-06-24T13:23:58;95513.03;;;30.27
31528;BMP280;10206;48.012;10.030;2023-06-24T13:26:24;95502.66;;;29.72
31528;BMP280;10206;48.012;10.030;2023-06-24T13:28:50;95506.84;;;29.67
31528;BMP280;10206;48.012;10.030;2023-06-24T13:31:16;95503.69;;;29.37
31528;BMP280;10206;48.012;10.030;2023-06-24T13:33:42;95500.28;;;30.14
31528;BMP280;10206;48.012;10.030;2023-06-24T13:36:25;95500.38;;;30.26
31528;BMP280;10206;48.012;10.030;2023-06-24T13:38:53;95503.44;;;30.62
31528;BMP280;10206;48.012;10.030;2023-06-24T13:41:19;95497.53;;;30.22
31528;BMP280;10206;48.012;10.030;2023-06-24T13:43:45;95501.59;;;30.07
31528;BMP280;10206;48.012;10.030;2023-06-24T13:46:12;95497.78;;;29.13
31528;BMP280;10206;48.012;10.030;2023-06-24T13:48:38;95501.63;;;29.43
31528;BMP280;10206;48.012;10.030;2023-06-24T13:51:04;95492.00;;;29.01
31528;BMP280;10206;48.012;10.030;2023-06-24T13:53:32;95483.66;;;29.09
31528;BMP280;10206;48.012;10.030;2023-06-24T13:55:58;95479.03;;;29.31
31528;BMP280;10206;48.012;10.030;2023-06-24T13:58:24;95478.63;;;28.99
31528;BMP280;10206;48.012;10.030;2023-06-24T14:00:50;95480.97;;;29.19
31528;BMP280;10206;48.012;10.030;2023-06-24T14:03:17;95489.44;;;29.86
31528;BMP280;10206;48.012;10.030;2023-06-24T14:05:43;95491.03;;;29.36
31528;BMP280;10206;48.012;10.030;2023-06-24T14:08:09;95482.84;;;29.60
31528;BMP280;10206;48.012;10.030;2023-06-24T14:10:35;95481.16;;;29.33
31528;BMP280;10206;48.012;10.030;2023-06-24T14:13:01;95474.16;;;29.36
31528;BMP280;10206;48.012;10.030;2023-06-24T14:15:27;95476.22;;;29.33
31528;BMP280;10206;48.012;10.030;2023-06-24T14:17:53;95474.94;;;28.85
31528;BMP280;10206;48.012;10.030;2023-06-24T14:20:19;95473.13;;;29.11